createdAt,value
2022-09-21T00:00:01.823Z,81.23
2022-09-21T00:03:07.460Z,81.37
2022-09-21T00:06:18.875Z,81.45
2022-09-21T00:09:21.366Z,81.75
2022-09-21T00:12:24.261Z,82.37
2022-09-21T00:15:26.884Z,82.03
2022-09-21T00:18:29.724Z,81.43
2022-09-21T00:21:32.392Z,81.55
2022-09-21T00:24:35.298Z,81.59
2022-09-21T00:27:37.990Z,82.01
2022-09-21T00:30:40.818Z,81.76
2022-09-21T00:33:43.747Z,82.07
2022-09-21T00:36:46.970Z,82.16
2022-09-21T00:39:49.544Z,82.09
2022-09-21T00:42:52.403Z,82.55
2022-09-21T00:46:05.690Z,82.14
2022-09-21T00:49:09.047Z,81.72
2022-09-21T00:52:14.917Z,82.61
2022-09-21T00:55:22.999Z,82.30
2022-09-21T00:58:31.783Z,82.77
2022-09-21T01:01:34.745Z,82.47
2022-09-21T01:04:38.495Z,82.46
2022-09-21T01:07:44.680Z,83.19
2022-09-21T01:11:22.893Z,82.24
2022-09-21T01:14:31.510Z,82.32
2022-09-21T01:17:49.080Z,82.45
2022-09-21T01:21:14.470Z,82.69
2022-09-21T01:24:41.193Z,82.47
2022-09-21T01:28:01.908Z,82.72
2022-09-21T01:31:06.029Z,81.99
2022-09-21T01:34:21.936Z,82.14
2022-09-21T01:38:13.099Z,81.63
2022-09-21T01:41:19.171Z,81.95
2022-09-21T01:44:24.751Z,81.99
2022-09-21T01:47:31.508Z,82.01
2022-09-21T01:50:42.338Z,81.81
2022-09-21T01:53:49.432Z,82.03
2022-09-21T01:56:58.438Z,82.44
2022-09-21T02:00:01.897Z,82.69
2022-09-21T02:03:22.772Z,83.12
2022-09-21T02:06:27.174Z,82.88
2022-09-21T02:09:29.862Z,83.47
2022-09-21T02:12:33.221Z,83.48
2022-09-21T02:16:04.038Z,84.48
2022-09-21T02:19:13.279Z,84.01
2022-09-21T02:22:29.246Z,85.19
2022-09-21T02:25:54.937Z,84.46
2022-09-21T02:29:11.917Z,84.87
2022-09-21T02:32:24.434Z,84.96
2022-09-21T02:35:32.758Z,84.92
2022-09-21T02:39:09.030Z,84.83
2022-09-21T02:42:17.367Z,84.45
2022-09-21T02:45:30.431Z,84.32
2022-09-21T02:48:49.765Z,84.37
2022-09-21T02:51:54.483Z,86.11
2022-09-21T02:54:57.494Z,86.32
2022-09-21T02:58:03.632Z,85.99
2022-09-21T03:01:09.365Z,86.28
2022-09-21T03:04:12.344Z,86.24
2022-09-21T03:07:16.135Z,85.62
2022-09-21T03:10:19.424Z,85.37
2022-09-21T03:13:21.918Z,85.79
2022-09-21T03:16:25.165Z,85.62
2022-09-21T03:19:29.305Z,85.16
2022-09-21T03:22:32.071Z,84.89
2022-09-21T03:25:34.542Z,84.55
2022-09-21T03:28:37.454Z,84.71
2022-09-21T03:31:39.899Z,84.52
2022-09-21T03:34:42.736Z,84.72
2022-09-21T03:37:46.162Z,84.83
2022-09-21T03:40:49.890Z,85.33
2022-09-21T03:43:52.427Z,85.13
2022-09-21T03:46:55.274Z,85.15
2022-09-21T03:49:57.784Z,85.52
2022-09-21T03:53:00.865Z,85.55
2022-09-21T03:56:03.366Z,85.12
2022-09-21T03:59:09.484Z,85.24
2022-09-21T04:02:18.303Z,83.99
2022-09-21T04:05:21.289Z,84.47
2022-09-21T04:08:23.789Z,84.40
2022-09-21T04:11:26.573Z,84.46
2022-09-21T04:14:29.822Z,84.47
2022-09-21T04:17:32.619Z,84.43
2022-09-21T04:20:35.251Z,84.34
2022-09-21T04:23:38.118Z,84.45
2022-09-21T04:26:41.167Z,84.05
2022-09-21T04:29:44.446Z,83.97
2022-09-21T04:32:46.910Z,84.05
2022-09-21T04:35:55.668Z,83.77
2022-09-21T04:39:01.214Z,83.64
2022-09-21T04:42:04.566Z,83.41
2022-09-21T04:45:07.897Z,83.37
2022-09-21T04:48:10.729Z,83.59
2022-09-21T04:51:14.609Z,83.62
2022-09-21T04:54:17.460Z,83.55
2022-09-21T04:57:19.985Z,83.63
2022-09-21T05:00:22.814Z,83.89
2022-09-21T05:03:26.150Z,84.42
2022-09-21T05:06:29.897Z,84.31
2022-09-21T05:09:50.967Z,84.48
2022-09-21T05:12:59.335Z,84.50
2022-09-21T05:16:02.341Z,84.35
2022-09-21T05:19:05.396Z,84.42
2022-09-21T05:22:08.139Z,84.30
2022-09-21T05:25:10.898Z,84.54
2022-09-21T05:28:13.770Z,85.36
2022-09-21T05:31:20.383Z,85.99
2022-09-21T05:34:41.621Z,85.25
2022-09-21T05:37:47.198Z,86.08
2022-09-21T05:40:50.344Z,86.09
2022-09-21T05:43:53.418Z,86.06
2022-09-21T05:47:02.737Z,85.61
2022-09-21T05:50:35.408Z,85.54
2022-09-21T05:53:59.506Z,84.69
2022-09-21T05:57:15.784Z,84.14
2022-09-21T06:00:20.267Z,83.37
2022-09-21T06:03:28.533Z,83.01
2022-09-21T06:06:31.090Z,82.81
2022-09-21T06:09:34.349Z,82.47
2022-09-21T06:12:36.851Z,81.59
2022-09-21T06:15:40.221Z,81.32
2022-09-21T06:18:43.519Z,80.40
2022-09-21T06:21:46.500Z,80.47
2022-09-21T06:24:49.024Z,79.33
2022-09-21T06:27:51.967Z,78.45
2022-09-21T06:30:55.561Z,78.72
2022-09-21T06:33:58.388Z,78.09
2022-09-21T06:37:00.922Z,79.26
2022-09-21T06:40:04.184Z,78.98
2022-09-21T06:43:06.800Z,78.88
2022-09-21T06:46:09.596Z,78.89
2022-09-21T06:49:12.095Z,78.24
2022-09-21T06:52:15.289Z,77.62
2022-09-21T06:55:17.928Z,77.07
2022-09-21T06:58:21.229Z,76.99
2022-09-21T07:01:24.906Z,77.21
2022-09-21T07:04:47.630Z,77.32
2022-09-21T07:07:53.786Z,76.39
2022-09-21T07:11:00.820Z,76.35
2022-09-21T07:14:04.281Z,75.38
2022-09-21T07:17:08.457Z,74.54
2022-09-21T07:20:11.893Z,74.81
2022-09-21T07:23:19.322Z,73.12
2022-09-21T07:26:22.696Z,74.06
2022-09-21T07:29:25.880Z,73.74
2022-09-21T07:32:28.499Z,73.09
2022-09-21T07:35:31.423Z,72.10
2022-09-21T07:38:35.602Z,70.77
2022-09-21T07:41:39.012Z,69.73
2022-09-21T07:44:41.564Z,69.94
2022-09-21T07:47:44.299Z,69.25
2022-09-21T07:50:46.767Z,67.22
2022-09-21T07:53:56.664Z,67.02
2022-09-21T07:57:17.633Z,66.64
2022-09-21T08:00:20.654Z,66.59
2022-09-21T08:03:23.457Z,66.15
2022-09-21T08:06:28.474Z,65.70
2022-09-21T08:09:31.368Z,65.91
2022-09-21T08:12:33.859Z,65.16
2022-09-21T08:15:49.397Z,63.75
2022-09-21T08:18:52.931Z,63.48
2022-09-21T08:21:57.850Z,64.16
2022-09-21T08:25:00.573Z,63.86
2022-09-21T08:28:08.789Z,64.17
2022-09-21T08:31:12.366Z,64.05
2022-09-21T08:34:19.600Z,63.21
2022-09-21T08:37:23.115Z,62.20
2022-09-21T08:40:26.146Z,62.21
2022-09-21T08:43:43.805Z,60.67
2022-09-21T08:46:49.687Z,61.34
2022-09-21T08:49:56.082Z,61.30
2022-09-21T08:53:07.229Z,61.78
2022-09-21T08:56:13.967Z,59.20
2022-09-21T08:59:16.799Z,59.61
2022-09-21T09:02:39.072Z,59.10
2022-09-21T09:05:51.042Z,59.71
2022-09-21T09:09:08.932Z,58.97
2022-09-21T09:12:59.978Z,59.61
2022-09-21T09:16:11.456Z,59.76
2022-09-21T09:19:33.124Z,59.82
2022-09-21T09:22:41.087Z,55.35
2022-09-21T09:25:47.320Z,52.50
2022-09-21T09:28:56.179Z,52.30
2022-09-21T09:32:01.338Z,51.38
2022-09-21T09:35:27.111Z,51.40
2022-09-21T09:38:34.181Z,52.69
2022-09-21T09:42:00.665Z,50.32
2022-09-21T09:45:24.457Z,49.29
2022-09-21T09:48:37.012Z,50.95
2022-09-21T09:51:40.530Z,49.38
2022-09-21T09:54:43.310Z,48.49
2022-09-21T09:57:46.980Z,49.57
2022-09-21T10:00:54.380Z,49.31
2022-09-21T10:04:09.558Z,47.44
2022-09-21T10:07:19.248Z,48.18
2022-09-21T10:10:23.370Z,47.88
2022-09-21T10:13:31.009Z,48.60
2022-09-21T10:16:34.177Z,50.39
2022-09-21T10:19:38.218Z,49.68
2022-09-21T10:22:42.909Z,48.46
2022-09-21T10:25:45.487Z,48.62
2022-09-21T10:29:28.313Z,50.54
2022-09-21T10:32:31.029Z,49.56
2022-09-21T10:35:49.175Z,50.71
2022-09-21T10:38:52.826Z,50.57
2022-09-21T10:42:05.014Z,50.32
2022-09-21T10:45:16.163Z,49.95
2022-09-21T10:48:21.553Z,50.46
2022-09-21T10:51:29.615Z,50.86
2022-09-21T10:54:33.358Z,50.25
2022-09-21T10:57:35.928Z,49.10
2022-09-21T11:00:44.766Z,49.46
2022-09-21T11:03:51.569Z,48.49
2022-09-21T11:07:10.938Z,48.99
2022-09-21T11:10:24.521Z,48.43
2022-09-21T11:13:36.906Z,46.65
2022-09-21T11:16:54.455Z,48.54
2022-09-21T11:20:18.348Z,49.63
2022-09-21T11:23:43.726Z,49.70
2022-09-21T11:26:52.343Z,50.59
2022-09-21T11:30:04.372Z,51.21
2022-09-21T11:33:29.146Z,49.05
2022-09-21T11:36:44.878Z,49.29
2022-09-21T11:40:07.310Z,51.98
2022-09-21T11:43:47.138Z,49.99
2022-09-21T11:47:26.776Z,52.27
2022-09-21T11:51:07.150Z,52.29
2022-09-21T11:54:51.887Z,52.56
2022-09-21T11:58:09.467Z,51.54
2022-09-21T12:01:15.147Z,51.12
2022-09-21T12:04:30.266Z,50.85
2022-09-21T12:08:06.417Z,50.76
2022-09-21T12:11:13.347Z,49.24
2022-09-21T12:14:24.578Z,50.01
2022-09-21T12:17:54.201Z,48.59
2022-09-21T12:21:04.260Z,47.96
2022-09-21T12:24:31.926Z,48.24
2022-09-21T12:27:40.750Z,48.41
2022-09-21T12:30:46.885Z,47.40
2022-09-21T12:33:53.076Z,48.23
2022-09-21T12:36:55.816Z,49.59
2022-09-21T12:40:15.704Z,52.60
2022-09-21T12:43:37.039Z,56.01
2022-09-21T12:46:55.418Z,56.08
2022-09-21T12:50:04.234Z,53.77
2022-09-21T12:53:07.244Z,56.52
2022-09-21T12:56:15.656Z,56.76
2022-09-21T12:59:57.410Z,53.95
2022-09-21T13:03:09.919Z,49.53
2022-09-21T13:06:37.976Z,52.87
2022-09-21T13:09:51.710Z,54.34
2022-09-21T13:13:02.997Z,58.37
2022-09-21T13:16:06.725Z,58.28
2022-09-21T13:19:15.383Z,57.74
2022-09-21T13:22:30.137Z,59.41
2022-09-21T13:25:37.583Z,56.14
2022-09-21T13:28:59.029Z,55.79
2022-09-21T13:32:07.739Z,56.92
2022-09-21T13:35:50.885Z,55.62
2022-09-21T13:38:57.313Z,53.68
2022-09-21T13:42:31.993Z,53.32
2022-09-21T13:45:34.542Z,50.61
2022-09-21T13:48:37.556Z,53.51
2022-09-21T13:51:57.756Z,57.58
2022-09-21T13:55:04.176Z,60.00
2022-09-21T13:58:19.577Z,60.36
2022-09-21T14:01:45.783Z,61.75
2022-09-21T14:04:49.055Z,61.38
2022-09-21T14:08:14.775Z,61.46
2022-09-21T14:11:23.855Z,60.71
2022-09-21T14:14:37.288Z,60.88
2022-09-21T14:17:40.939Z,61.76
2022-09-21T14:21:09.380Z,62.46
2022-09-21T14:24:20.993Z,61.48
2022-09-21T14:27:45.739Z,60.37
2022-09-21T14:30:58.033Z,60.47
2022-09-21T14:34:03.952Z,58.79
2022-09-21T14:37:16.931Z,58.78
2022-09-21T14:40:26.291Z,58.67
2022-09-21T14:43:35.237Z,58.53
2022-09-21T14:47:12.736Z,59.74
2022-09-21T14:50:39.171Z,59.10
2022-09-21T14:53:55.932Z,58.63
2022-09-21T14:57:35.276Z,58.35
2022-09-21T15:00:44.822Z,58.94
2022-09-21T15:03:50.677Z,57.93
2022-09-21T15:08:03.394Z,58.52
2022-09-21T15:11:28.654Z,59.17
2022-09-21T15:15:23.609Z,59.81
2022-09-21T15:18:26.377Z,60.89
2022-09-21T15:21:30.596Z,52.67
2022-09-21T15:24:34.349Z,54.43
2022-09-21T15:27:37.830Z,52.60
2022-09-21T15:30:45.799Z,53.04
2022-09-21T15:33:52.307Z,52.08
2022-09-21T15:37:06.280Z,52.40
2022-09-21T15:40:26.130Z,52.60
2022-09-21T15:43:29.833Z,53.54
2022-09-21T15:46:32.873Z,53.01
2022-09-21T15:49:36.375Z,52.57
2022-09-21T15:52:43.209Z,52.44
2022-09-21T15:55:47.672Z,52.92
2022-09-21T15:58:50.455Z,52.28
2022-09-21T16:01:55.955Z,52.92
2022-09-21T16:04:59.015Z,51.70
2022-09-21T16:08:07.382Z,51.68
2022-09-21T16:11:26.369Z,50.81
2022-09-21T16:14:47.631Z,51.48
2022-09-21T16:18:02.986Z,50.38
2022-09-21T16:21:27.687Z,51.21
2022-09-21T16:24:31.473Z,50.54
2022-09-21T16:27:36.157Z,52.23
2022-09-21T16:30:51.207Z,52.32
2022-09-21T16:33:59.819Z,52.44
2022-09-21T16:37:18.222Z,52.85
2022-09-21T16:40:21.135Z,52.48
2022-09-21T16:43:24.346Z,53.63
2022-09-21T16:46:27.503Z,53.96
2022-09-21T16:49:34.725Z,55.11
2022-09-21T16:52:37.186Z,55.25
2022-09-21T16:55:42.976Z,56.08
2022-09-21T16:58:46.269Z,55.88
2022-09-21T17:01:55.484Z,56.49
2022-09-21T17:04:58.865Z,56.66
2022-09-21T17:08:02.527Z,56.83
2022-09-21T17:11:05.288Z,57.25
2022-09-21T17:14:08.072Z,57.02
2022-09-21T17:17:17.570Z,57.26
2022-09-21T17:20:39.975Z,56.94
2022-09-21T17:23:42.655Z,58.22
2022-09-21T17:26:45.577Z,58.41
2022-09-21T17:29:48.394Z,57.89
2022-09-21T17:32:51.579Z,58.48
2022-09-21T17:35:56.614Z,58.20
2022-09-21T17:38:59.466Z,58.25
2022-09-21T17:42:21.778Z,59.08
2022-09-21T17:45:41.317Z,59.65
2022-09-21T17:48:44.363Z,59.61
2022-09-21T17:52:05.728Z,60.51
2022-09-21T17:55:11.569Z,60.28
2022-09-21T17:58:27.828Z,60.44
2022-09-21T18:01:38.012Z,60.96
2022-09-21T18:04:42.950Z,61.29
2022-09-21T18:07:45.696Z,62.34
2022-09-21T18:11:05.227Z,61.81
2022-09-21T18:14:35.059Z,62.30
2022-09-21T18:18:19.830Z,62.82
2022-09-21T18:21:28.024Z,62.32
2022-09-21T18:24:33.440Z,62.69
2022-09-21T18:27:39.367Z,62.81
2022-09-21T18:30:52.897Z,63.01
2022-09-21T18:34:11.022Z,64.05
2022-09-21T18:41:11.298Z,63.96
2022-09-21T18:44:20.378Z,64.91
2022-09-21T18:47:32.738Z,65.56
2022-09-21T18:50:53.608Z,65.34
2022-09-21T18:53:58.274Z,65.99
2022-09-21T18:57:01.378Z,65.72
2022-09-21T19:00:04.620Z,65.60
2022-09-21T19:03:17.702Z,66.86
2022-09-21T19:06:46.141Z,66.46
2022-09-21T19:09:52.008Z,66.78
2022-09-21T19:13:09.397Z,66.71
2022-09-21T19:16:24.414Z,67.38
2022-09-21T19:19:36.989Z,67.60
2022-09-21T19:22:48.942Z,66.95
2022-09-21T19:25:53.465Z,66.69
2022-09-21T19:29:14.913Z,67.03
2022-09-21T19:32:31.736Z,67.10
2022-09-21T19:35:34.722Z,67.34
2022-09-21T19:38:37.527Z,67.42
2022-09-21T19:42:17.949Z,67.68
2022-09-21T19:45:42.571Z,67.66
2022-09-21T19:48:47.381Z,68.19
2022-09-21T19:51:55.906Z,68.27
2022-09-21T19:55:17.336Z,68.35
2022-09-21T19:58:38.423Z,68.49
2022-09-21T20:01:49.497Z,68.84
2022-09-21T20:04:56.964Z,69.01
2022-09-21T20:08:21.520Z,69.20
2022-09-21T20:11:34.806Z,69.49
2022-09-21T20:14:50.987Z,70.24
2022-09-21T20:18:00.442Z,70.78
2022-09-21T20:21:03.243Z,70.97
2022-09-21T20:24:15.840Z,71.30
2022-09-21T20:27:34.878Z,71.97
2022-09-21T20:30:39.724Z,71.72
2022-09-21T20:33:42.236Z,72.86
2022-09-21T20:36:47.881Z,72.63
2022-09-21T20:39:50.353Z,72.55
2022-09-21T20:42:53.964Z,72.86
2022-09-21T20:45:58.504Z,73.11
2022-09-21T20:49:08.595Z,74.06
2022-09-21T20:52:11.314Z,73.41
2022-09-21T20:55:17.358Z,73.27
2022-09-21T20:58:19.856Z,73.85
2022-09-21T21:01:22.989Z,73.68
2022-09-21T21:04:25.702Z,73.72
2022-09-21T21:07:30.715Z,73.45
2022-09-21T21:10:34.300Z,73.60
2022-09-21T21:13:37.467Z,73.23
2022-09-21T21:16:40.045Z,73.17
2022-09-21T21:19:43.278Z,73.57
2022-09-21T21:22:48.981Z,74.25
2022-09-21T21:25:52.054Z,73.78
2022-09-21T21:28:54.515Z,73.84
2022-09-21T21:31:59.053Z,74.49
2022-09-21T21:35:02.316Z,74.81
2022-09-21T21:38:05.146Z,74.56
2022-09-21T21:41:07.666Z,74.39
2022-09-21T21:44:11.549Z,73.61
2022-09-21T21:47:38.592Z,73.89
2022-09-21T21:50:37.240Z,73.84
2022-09-21T21:53:40.032Z,74.77
2022-09-21T21:56:44.242Z,73.81
2022-09-21T21:59:46.751Z,73.98
2022-09-21T22:02:49.602Z,74.01
2022-09-21T22:05:55.897Z,73.75
2022-09-21T22:08:58.731Z,73.19
2022-09-21T22:12:02.506Z,73.52
2022-09-21T22:15:05.376Z,73.07
2022-09-21T22:18:08.106Z,73.84
2022-09-21T22:21:26.270Z,73.25
2022-09-21T22:24:29.711Z,74.11
2022-09-21T22:27:32.227Z,73.62
2022-09-21T22:30:35.036Z,73.09
2022-09-21T22:33:37.744Z,72.82
2022-09-21T22:36:43.854Z,73.05
2022-09-21T22:39:46.905Z,72.96
2022-09-21T22:42:49.659Z,73.47
2022-09-21T22:45:54.249Z,73.14
2022-09-21T22:48:57.220Z,73.54
2022-09-21T22:51:59.721Z,74.04
2022-09-21T22:55:02.520Z,73.69
2022-09-21T22:58:05.150Z,73.81
2022-09-21T23:01:08.108Z,73.95
2022-09-21T23:04:13.142Z,75.30
2022-09-21T23:07:17.004Z,75.07
2022-09-21T23:10:21.744Z,74.92
2022-09-21T23:13:24.721Z,74.58
2022-09-21T23:16:28.746Z,74.32
2022-09-21T23:19:32.039Z,73.83
2022-09-21T23:22:34.542Z,73.81
2022-09-21T23:25:37.461Z,73.76
2022-09-21T23:28:42.441Z,73.87
2022-09-21T23:31:46.283Z,74.37
2022-09-21T23:34:49.194Z,74.84
2022-09-21T23:37:52.118Z,74.90
2022-09-21T23:40:55.821Z,74.83
2022-09-21T23:43:58.731Z,74.80
2022-09-21T23:47:01.277Z,75.21
2022-09-21T23:50:04.334Z,75.99
2022-09-21T23:53:06.823Z,76.12
2022-09-21T23:56:13.770Z,76.24
2022-09-21T23:59:16.214Z,75.83
